Time;durP1;ratioP1;P1;durP2;ratioP2;P2;SDS_P1;SDS_P2;PMS_P1;PMS_P2;Temp;Humidity;BMP_temperature;BMP_pressure;BME280_temperature;BME280_humidity;BME280_pressure;Samples;Min_cycle;Max_cycle;Signal;HPM_P1;HPM_P2
2021/07/18 00:01:05;;;;;;;11.68;5.35;;;;;;;16.61;82.56;102762.09;5009023;28;20029;-69
2021/07/18 00:03:31;;;;;;;12.75;5.55;;;;;;;16.59;82.74;102758.59;5027612;28;20032;-68
2021/07/18 00:05:56;;;;;;;9.35;4.65;;;;;;;16.61;82.62;102762.09;5008814;28;20083;-67
2021/07/18 00:08:22;;;;;;;16.55;5.35;;;;;;;16.59;82.28;102750.66;5009870;28;20029;-69
2021/07/18 00:10:48;;;;;;;11.15;5.20;;;;;;;16.58;82.40;102756.88;5027151;28;20209;-69
2021/07/18 00:13:14;;;;;;;10.63;4.75;;;;;;;16.64;82.48;102747.88;5009266;28;20071;-68
2021/07/18 00:15:39;;;;;;;11.50;4.60;;;;;;;16.65;82.17;102746.97;5009028;28;20022;-69
2021/07/18 00:18:05;;;;;;;11.32;5.38;;;;;;;16.61;82.58;102747.06;5027245;28;20025;-69
2021/07/18 00:20:30;;;;;;;11.68;5.13;;;;;;;16.57;82.73;102745.41;5027095;28;20493;-68
2021/07/18 00:22:55;;;;;;;9.35;4.53;;;;;;;16.58;82.67;102740.97;5009534;28;20021;-68
2021/07/18 00:25:21;;;;;;;11.82;4.68;;;;;;;16.57;82.63;102737.47;5026506;28;20474;-68
2021/07/18 00:27:46;;;;;;;9.35;4.22;;;;;;;16.64;82.22;102737.28;5027191;28;20029;-69
2021/07/18 00:30:12;;;;;;;13.68;5.55;;;;;;;16.59;82.34;102743.56;5026491;28;20033;-68
2021/07/18 00:32:37;;;;;;;10.15;4.90;;;;;;;16.57;82.74;102740.13;5009701;28;20030;-68
2021/07/18 00:35:04;;;;;;;10.07;4.63;;;;;;;16.53;82.52;102737.59;5026641;28;20028;-68
2021/07/18 00:37:29;;;;;;;11.57;5.22;;;;;;;16.49;82.86;102742.09;5009467;28;20084;-69
2021/07/18 00:39:55;;;;;;;9.20;4.13;;;;;;;16.48;82.60;102740.34;5026540;28;20471;-69
2021/07/18 00:42:20;;;;;;;9.82;4.90;;;;;;;16.48;82.62;102752.75;5008760;28;20056;-69
2021/07/18 00:44:46;;;;;;;7.97;4.88;;;;;;;16.43;82.71;102751.09;5027107;28;20053;-67
2021/07/18 00:47:12;;;;;;;13.45;4.80;;;;;;;16.42;82.42;102744.06;5026854;28;20408;-68
2021/07/18 00:49:37;;;;;;;9.32;4.50;;;;;;;16.43;82.33;102747.56;5026845;28;20029;-68
2021/07/18 00:52:04;;;;;;;12.38;5.07;;;;;;;16.38;82.73;102744.19;5026463;28;20060;-68
2021/07/18 00:54:29;;;;;;;8.27;4.55;;;;;;;16.34;83.18;102748.69;5009135;28;20044;-68
2021/07/18 00:56:57;;;;;;;11.45;4.45;;;;;;;16.35;83.08;102737.19;5008810;28;20022;-68
2021/07/18 00:59:22;;;;;;;8.73;4.63;;;;;;;16.37;82.66;102743.31;5009648;28;20367;-68
2021/07/18 01:01:47;;;;;;;9.63;3.97;;;;;;;16.39;82.46;102746.78;5026184;28;20045;-68
2021/07/18 01:04:13;;;;;;;11.25;4.50;;;;;;;16.35;82.76;102749.53;5026083;28;20462;-68
2021/07/18 01:06:38;;;;;;;9.05;4.75;;;;;;;16.29;83.42;102751.44;5027340;28;20105;-70
2021/07/18 01:09:03;;;;;;;10.00;4.85;;;;;;;16.26;83.39;102748.88;5028490;28;20108;-68
2021/07/18 01:11:29;;;;;;;19.95;5.50;;;;;;;16.24;83.63;102741.91;5028018;28;20067;-69
2021/07/18 01:13:54;;;;;;;11.75;5.25;;;;;;;16.20;83.82;102743.75;5011440;28;20489;-69
2021/07/18 01:16:19;;;;;;;12.13;4.47;;;;;;;16.21;83.54;102741.97;5010751;28;20082;-72
2021/07/18 01:18:45;;;;;;;12.27;5.13;;;;;;;16.19;83.62;102742.00;5032080;28;20295;-69
2021/07/18 01:21:10;;;;;;;11.23;4.78;;;;;;;16.20;83.87;102737.56;5030964;28;20017;-69
2021/07/18 01:23:37;;;;;;;10.02;4.90;;;;;;;16.22;83.51;102733.13;5031733;28;20026;-67
2021/07/18 01:26:03;;;;;;;9.32;4.80;;;;;;;16.22;83.67;102733.97;5013476;28;20072;-66
2021/07/18 01:28:29;;;;;;;12.25;5.50;;;;;;;16.18;84.09;102739.41;5031809;28;20064;-68
2021/07/18 01:30:54;;;;;;;10.38;5.35;;;;;;;16.16;83.51;102734.13;5013734;28;20025;-67
2021/07/18 01:33:19;;;;;;;10.65;5.55;;;;;;;16.17;83.60;102722.66;4997551;28;20435;-69
2021/07/18 01:35:45;;;;;;;10.57;5.30;;;;;;;16.16;83.86;102723.56;5031462;28;20048;-69
2021/07/18 01:38:12;;;;;;;10.85;5.65;;;;;;;16.13;83.85;102724.50;5030410;28;20026;-69
2021/07/18 01:40:38;;;;;;;11.40;5.30;;;;;;;16.08;84.11;102717.59;5031108;28;20025;-68
2021/07/18 01:43:04;;;;;;;14.60;6.28;;;;;;;16.06;83.92;102722.06;5030312;28;20408;-68
2021/07/18 01:45:29;;;;;;;14.38;7.00;;;;;;;16.01;84.27;102713.38;5030625;28;20036;-68
2021/07/18 01:47:55;;;;;;;11.80;6.18;;;;;;;15.97;84.41;102718.72;5030395;28;20017;-69
2021/07/18 01:50:21;;;;;;;12.07;6.00;;;;;;;15.96;84.49;102724.97;5026426;28;20057;-69
2021/07/18 01:52:46;;;;;;;9.52;6.55;;;;;;;15.92;84.46;102720.63;5007460;28;20060;-66
2021/07/18 01:55:13;;;;;;;11.75;6.35;;;;;;;15.90;84.40;102716.28;5030582;28;20071;-69
2021/07/18 01:57:40;;;;;;;11.20;6.38;;;;;;;15.92;84.33;102715.34;5030259;28;20029;-68
2021/07/18 02:00:10;;;;;;;11.82;6.72;;;;;;;15.90;84.56;102721.59;5030560;28;20044;-67
2021/07/18 02:02:36;;;;;;;12.13;6.57;;;;;;;15.86;84.68;102715.50;5030284;28;20029;-68
2021/07/18 02:05:05;;;;;;;12.48;7.50;;;;;;;15.84;84.89;102719.97;5030974;28;20044;-68
2021/07/18 02:07:30;;;;;;;11.75;6.82;;;;;;;15.83;84.76;102718.25;5030441;28;20021;-66
2021/07/18 02:09:56;;;;;;;14.55;6.78;;;;;;;15.81;84.73;102720.00;5045614;28;20052;-68
2021/07/18 02:12:22;;;;;;;13.85;6.75;;;;;;;15.76;85.00;102722.75;5030415;28;20409;-70
2021/07/18 02:14:47;;;;;;;13.00;7.35;;;;;;;15.75;84.86;102728.09;5030827;28;20381;-69
2021/07/18 02:17:13;;;;;;;14.98;7.45;;;;;;;15.72;85.01;102722.91;5030283;28;20021;-67
2021/07/18 02:19:38;;;;;;;15.80;7.68;;;;;;;15.69;85.21;102721.19;5030041;28;20288;-69
2021/07/18 02:22:04;;;;;;;20.48;7.75;;;;;;;15.69;85.03;102715.03;5045521;28;20112;-68
2021/07/18 02:24:29;;;;;;;11.57;6.60;;;;;;;15.72;84.82;102712.31;5030132;28;20032;-67
2021/07/18 02:26:55;;;;;;;15.50;8.02;;;;;;;15.68;85.37;102715.91;5012483;28;20030;-69
2021/07/18 02:29:21;;;;;;;15.82;7.20;;;;;;;15.71;85.24;102715.88;5030076;28;20033;-69
2021/07/18 02:31:47;;;;;;;12.48;7.00;;;;;;;15.70;84.97;102714.97;5030442;28;20060;-72
2021/07/18 02:34:12;;;;;;;12.68;7.40;;;;;;;15.67;85.59;102714.22;5030117;28;20026;-70
2021/07/18 02:36:37;;;;;;;11.70;6.65;;;;;;;15.64;85.35;102709.84;5030619;28;20084;-67
2021/07/18 02:39:04;;;;;;;10.60;6.80;;;;;;;15.62;85.73;102712.53;5029792;28;20323;-69
2021/07/18 02:41:30;;;;;;;10.30;6.80;;;;;;;15.61;85.74;102717.88;5030578;28;20030;-69
2021/07/18 02:43:55;;;;;;;13.65;7.32;;;;;;;15.58;85.80;102721.44;5030814;28;20117;-69
2021/07/18 02:46:21;;;;;;;14.88;7.80;;;;;;;15.58;85.85;102715.28;5030376;28;20057;-69
2021/07/18 02:48:46;;;;;;;10.57;6.80;;;;;;;15.56;86.01;102711.81;5029842;28;20052;-69
2021/07/18 02:51:12;;;;;;;12.55;7.10;;;;;;;15.55;86.09;102716.22;5029510;28;20426;-70
2021/07/18 02:53:37;;;;;;;14.20;7.07;;;;;;;15.57;85.62;102711.78;5011439;28;20025;-69
2021/07/18 02:56:03;;;;;;;13.25;6.63;;;;;;;15.57;85.72;102703.84;5044952;28;20029;-67
2021/07/18 02:58:28;;;;;;;10.40;6.82;;;;;;;15.60;85.85;102709.06;5011537;28;20037;-69
2021/07/18 03:00:54;;;;;;;12.60;7.22;;;;;;;15.57;86.10;102702.97;5029306;28;20021;-68
2021/07/18 03:03:19;;;;;;;10.63;7.20;;;;;;;15.52;86.67;102708.38;5028969;28;20025;-69
2021/07/18 03:05:45;;;;;;;11.70;6.78;;;;;;;15.53;86.24;102706.59;5028078;28;20025;-68
2021/07/18 03:08:11;;;;;;;12.38;6.68;;;;;;;15.52;86.46;102699.56;5044438;28;20061;-69
2021/07/18 03:10:36;;;;;;;15.13;6.47;;;;;;;15.50;86.75;102704.88;5029665;28;20118;-67
2021/07/18 03:13:02;;;;;;;12.95;7.00;;;;;;;15.49;86.57;102708.44;5044643;28;20063;-67
2021/07/18 03:15:27;;;;;;;15.48;6.78;;;;;;;15.49;86.72;102700.50;5029365;28;20520;-69
2021/07/18 03:17:52;;;;;;;15.60;6.65;;;;;;;15.51;86.54;102693.41;5029408;28;20025;-68
2021/07/18 03:20:19;;;;;;;12.25;6.47;;;;;;;15.55;86.11;102694.22;5028724;28;20029;-69
2021/07/18 03:22:45;;;;;;;11.48;7.38;;;;;;;15.56;86.57;102695.94;5028881;28;20112;-67
2021/07/18 03:25:11;;;;;;;12.15;6.55;;;;;;;15.54;86.37;102690.72;5028851;28;20101;-66
2021/07/18 03:27:37;;;;;;;11.13;7.15;;;;;;;15.53;86.29;102691.59;4994879;28;20028;-69
2021/07/18 03:30:05;;;;;;;13.20;7.10;;;;;;;15.51;86.69;102682.84;5010903;28;20029;-68
2021/07/18 03:32:30;;;;;;;10.15;6.43;;;;;;;15.52;86.68;102687.22;5029116;28;20200;-70
2021/07/18 03:34:55;;;;;;;13.13;6.88;;;;;;;15.53;86.45;102688.06;5028736;28;20513;-69
2021/07/18 03:37:21;;;;;;;11.80;6.97;;;;;;;15.56;85.52;102688.88;5028931;28;20025;-67
2021/07/18 03:39:46;;;;;;;13.80;7.15;;;;;;;15.58;86.22;102688.81;5043469;28;20079;-69
2021/07/18 03:42:12;;;;;;;8.02;5.53;;;;;;;15.57;86.13;102685.31;5026631;28;20025;-67
2021/07/18 03:44:39;;;;;;;11.50;7.03;;;;;;;15.54;86.01;102681.88;5026093;28;20029;-70
2021/07/18 03:47:05;;;;;;;12.52;6.75;;;;;;;15.54;86.19;102687.19;5029309;28;20022;-70
2021/07/18 03:49:31;;;;;;;12.77;7.32;;;;;;;15.53;86.00;102688.97;5012164;28;20055;-70
2021/07/18 03:51:56;;;;;;;12.98;6.40;;;;;;;15.52;85.96;102684.56;5011934;28;20029;-70
2021/07/18 03:54:22;;;;;;;12.07;5.65;;;;;;;15.49;85.76;102682.88;5030009;28;20055;-68
2021/07/18 03:56:48;;;;;;;10.02;6.55;;;;;;;15.48;85.57;102688.22;5045187;28;20029;-69
2021/07/18 03:59:13;;;;;;;11.60;6.45;;;;;;;15.49;85.74;102688.16;5029755;28;20022;-67
2021/07/18 04:01:39;;;;;;;11.40;7.38;;;;;;;15.52;85.80;102689.88;5029136;28;20025;-69
2021/07/18 04:04:04;;;;;;;14.43;6.82;;;;;;;15.52;85.89;102696.91;5029145;28;20507;-69
2021/07/18 04:06:29;;;;;;;14.35;7.78;;;;;;;15.57;85.91;102700.34;5028821;28;20033;-69
2021/07/18 04:08:55;;;;;;;12.18;7.30;;;;;;;15.56;85.66;102695.94;5028911;28;20021;-68
2021/07/18 04:11:20;;;;;;;13.55;7.80;;;;;;;15.58;85.83;102692.34;5010603;28;20025;-70
2021/07/18 04:13:45;;;;;;;20.33;7.63;;;;;;;15.58;86.09;102688.81;5043966;28;20021;-68
2021/07/18 04:16:11;;;;;;;11.65;7.30;;;;;;;15.57;86.12;102697.69;5028235;28;20061;-69
2021/07/18 04:18:36;;;;;;;12.00;7.43;;;;;;;15.55;86.26;102695.06;5028872;28;20025;-69
2021/07/18 04:21:02;;;;;;;11.02;7.05;;;;;;;15.57;86.19;102700.34;5043327;28;20026;-67
2021/07/18 04:23:27;;;;;;;15.68;7.20;;;;;;;15.56;86.47;102694.16;5028094;28;20026;-69
2021/07/18 04:25:52;;;;;;;14.25;7.20;;;;;;;15.57;86.30;102693.25;5027720;28;20029;-69
2021/07/18 04:28:18;;;;;;;10.68;6.68;;;;;;;15.61;86.66;102692.25;5028461;28;20029;-68
2021/07/18 04:30:44;;;;;;;12.77;6.30;;;;;;;15.71;85.52;102692.06;5027859;28;20405;-70
2021/07/18 04:33:09;;;;;;;13.93;6.53;;;;;;;15.76;85.71;102692.81;5028234;28;20021;-68
2021/07/18 04:35:34;;;;;;;12.13;6.28;;;;;;;15.80;85.86;102699.75;5027758;28;20029;-68
2021/07/18 04:38:02;;;;;;;12.63;6.85;;;;;;;15.86;85.89;102691.69;5028015;28;20065;-69
2021/07/18 04:40:28;;;;;;;9.68;6.10;;;;;;;15.90;85.90;102698.66;5027919;28;20454;-69
2021/07/18 04:42:53;;;;;;;18.27;6.75;;;;;;;15.91;86.26;102695.06;5043628;28;20108;-69
2021/07/18 04:45:19;;;;;;;11.98;7.10;;;;;;;16.00;85.58;102695.75;5010133;28;20029;-67
2021/07/18 04:47:58;;;;;;;11.35;5.97;;;;;;;16.02;85.54;102691.31;5019657;28;20025;-67
2021/07/18 04:50:25;;;;;;;12.90;6.72;;;;;;;16.11;85.14;102701.63;5017465;28;20080;-68
2021/07/18 04:52:51;;;;;;;11.75;6.50;;;;;;;16.14;85.48;102704.22;5008669;28;20048;-68
2021/07/18 04:55:17;;;;;;;12.80;6.55;;;;;;;16.15;85.37;102700.66;5021341;28;20040;-67
2021/07/18 04:57:43;;;;;;;14.70;6.30;;;;;;;16.23;85.33;102698.66;5020910;28;20022;-71
2021/07/18 05:00:13;;;;;;;12.00;5.90;;;;;;;16.33;84.90;102701.06;5019909;28;20033;-67
2021/07/18 05:02:39;;;;;;;12.05;5.93;;;;;;;16.45;84.52;102698.06;5019806;28;20018;-68
2021/07/18 05:05:08;;;;;;;8.50;5.85;;;;;;;16.51;84.37;102699.66;5013474;28;20034;-68
2021/07/18 05:07:50;;;;;;;9.32;5.60;;;;;;;16.61;84.18;102694.06;4993316;28;20088;-68
2021/07/18 05:10:17;;;;;;;11.18;5.43;;;;;;;16.73;83.97;102694.63;5020957;28;20021;-67
2021/07/18 05:12:43;;;;;;;9.32;5.95;;;;;;;16.83;83.37;102693.47;5038187;28;20436;-68
2021/07/18 05:15:09;;;;;;;13.30;5.43;;;;;;;16.94;83.10;102699.34;5029438;28;20125;-67
2021/07/18 05:17:35;;;;;;;9.70;5.35;;;;;;;17.04;82.89;102693.72;5046173;28;20045;-68
2021/07/18 05:20:00;;;;;;;10.88;5.57;;;;;;;17.15;82.39;102699.56;5031778;28;20023;-68
2021/07/18 05:22:25;;;;;;;10.27;5.72;;;;;;;17.29;81.90;102687.66;5049498;28;20082;-68
2021/07/18 05:24:53;;;;;;;8.00;5.07;;;;;;;17.34;81.63;102693.69;5049514;28;20033;-71
2021/07/18 05:27:19;;;;;;;12.30;4.75;;;;;;;17.48;81.14;102691.47;5050798;28;20025;-68
2021/07/18 05:29:44;;;;;;;8.43;5.03;;;;;;;17.54;80.71;102693.91;5019281;28;20026;-67
2021/07/18 05:32:09;;;;;;;8.77;4.88;;;;;;;17.65;80.62;102698.88;5040584;28;20340;-71
2021/07/18 05:34:35;;;;;;;11.35;4.90;;;;;;;17.77;80.23;102692.28;5013540;28;20498;-68
2021/07/18 05:37:00;;;;;;;13.90;5.18;;;;;;;17.78;79.04;102694.00;5029336;28;20466;-69
2021/07/18 05:39:25;;;;;;;11.48;4.47;;;;;;;17.91;78.13;102684.72;5028653;28;20617;-68
2021/07/18 05:41:51;;;;;;;7.78;4.25;;;;;;;18.03;78.11;102687.88;5030608;28;20522;-69
2021/07/18 05:44:16;;;;;;;8.13;4.28;;;;;;;18.07;77.54;102689.50;5011763;28;20051;-69
2021/07/18 05:46:41;;;;;;;8.77;4.78;;;;;;;18.12;77.15;102684.94;5030161;28;20104;-67
2021/07/18 05:49:06;;;;;;;11.27;4.85;;;;;;;18.17;76.42;102693.59;5029809;28;20021;-68
2021/07/18 05:51:32;;;;;;;9.68;4.50;;;;;;;18.30;76.43;102687.84;5029463;28;20017;-68
2021/07/18 05:53:57;;;;;;;9.40;4.05;;;;;;;18.32;76.54;102688.63;5029484;28;20056;-70
2021/07/18 05:56:23;;;;;;;20.13;5.18;;;;;;;18.36;76.87;102687.63;5030023;28;20101;-69
2021/07/18 05:58:48;;;;;;;11.27;4.13;;;;;;;18.51;75.99;102694.16;5010974;28;20532;-67
2021/07/18 06:01:13;;;;;;;9.98;4.57;;;;;;;18.59;75.23;102692.06;5027650;28;20049;-66
2021/07/18 06:03:39;;;;;;;11.73;4.30;;;;;;;18.54;76.12;102696.69;5028674;28;20021;-67
2021/07/18 06:06:04;;;;;;;9.02;4.20;;;;;;;18.69;76.02;102695.25;5029138;28;20095;-67
2021/07/18 06:08:29;;;;;;;9.65;3.75;;;;;;;18.86;74.89;102690.16;5029221;28;20390;-70
2021/07/18 06:10:55;;;;;;;11.05;3.72;;;;;;;18.93;74.58;102695.25;5028043;28;20029;-71
2021/07/18 06:13:20;;;;;;;10.20;4.40;;;;;;;18.91;74.11;102692.66;5010604;28;20056;-68
2021/07/18 06:15:45;;;;;;;8.73;3.30;;;;;;;19.04;73.75;102693.06;5026703;28;20104;-68
2021/07/18 06:18:11;;;;;;;5.53;2.92;;;;;;;19.18;73.46;102695.19;5027255;28;20042;-71
2021/07/18 06:20:38;;;;;;;8.68;3.30;;;;;;;19.31;72.96;102695.53;5022984;28;20017;-73
2021/07/18 06:23:05;;;;;;;8.55;3.33;;;;;;;19.35;72.63;102694.50;5027086;28;20094;-70
2021/07/18 06:25:30;;;;;;;10.13;3.15;;;;;;;19.36;72.95;102693.56;5026526;28;20033;-71
2021/07/18 06:27:55;;;;;;;8.40;3.00;;;;;;;19.51;72.32;102695.59;5026071;28;20021;-68
2021/07/18 06:30:21;;;;;;;8.27;3.05;;;;;;;19.66;72.91;102691.44;5009534;28;20024;-69
2021/07/18 06:32:46;;;;;;;8.30;3.42;;;;;;;19.84;71.60;102684.47;5027505;28;20080;-71
2021/07/18 06:35:11;;;;;;;5.63;2.70;;;;;;;19.94;70.85;102692.09;5027932;28;20018;-67
2021/07/18 06:37:37;;;;;;;7.47;3.00;;;;;;;19.94;70.63;102684.09;5027770;28;20105;-70
2021/07/18 06:40:04;;;;;;;7.20;2.63;;;;;;;19.95;70.44;102689.34;5025817;28;20250;-67
2021/07/18 06:42:30;;;;;;;6.55;2.90;;;;;;;20.10;70.32;102690.47;5026662;28;20029;-70
2021/07/18 06:44:58;;;;;;;7.15;2.83;;;;;;;20.22;69.96;102693.53;5027585;28;20021;-68
2021/07/18 06:47:24;;;;;;;13.27;3.13;;;;;;;20.18;69.71;102699.94;5026327;28;20104;-69
2021/07/18 06:49:49;;;;;;;11.85;2.70;;;;;;;20.24;70.08;102697.00;5023188;28;20113;-68
2021/07/18 06:52:15;;;;;;;5.53;2.40;;;;;;;20.47;68.96;102694.16;5020144;28;20025;-68
2021/07/18 06:54:41;;;;;;;8.30;2.53;;;;;;;20.65;68.71;102694.25;5025015;28;20478;-67
2021/07/18 06:57:06;;;;;;;4.75;2.20;;;;;;;20.62;67.99;102691.72;5017062;28;20108;-69
2021/07/18 06:59:32;;;;;;;9.02;2.25;;;;;;;20.70;66.54;102688.69;5018426;28;20030;-67
2021/07/18 07:01:57;;;;;;;11.60;2.88;;;;;;;20.78;66.48;102687.44;5022305;28;20037;-67
2021/07/18 07:04:22;;;;;;;5.38;2.35;;;;;;;20.92;66.33;102696.59;5008058;28;20100;-70
2021/07/18 07:06:48;;;;;;;8.80;2.63;;;;;;;20.96;65.97;102693.72;5000579;28;20492;-68
2021/07/18 07:09:13;;;;;;;7.32;2.72;;;;;;;20.87;66.51;102693.28;5016559;28;20366;-70
2021/07/18 07:11:38;;;;;;;6.68;2.50;;;;;;;21.08;66.42;102694.06;5015208;28;20156;-69
2021/07/18 07:14:04;;;;;;;9.48;2.55;;;;;;;21.31;66.71;102697.41;5016450;28;20017;-69
2021/07/18 07:16:29;;;;;;;5.72;2.30;;;;;;;21.55;67.27;102698.00;4997899;28;20034;-69
2021/07/18 07:18:55;;;;;;;6.93;2.78;;;;;;;21.68;65.76;102695.59;5016641;28;20029;-67
2021/07/18 07:21:20;;;;;;;9.77;2.92;;;;;;;21.68;63.68;102699.16;5016860;28;20044;-68
2021/07/18 07:23:45;;;;;;;8.75;2.33;;;;;;;21.74;63.04;102704.19;5020436;28;20029;-70
2021/07/18 07:26:11;;;;;;;8.15;3.20;;;;;;;21.69;63.60;102695.50;5014510;28;20018;-68
2021/07/18 07:28:36;;;;;;;5.72;2.47;;;;;;;21.87;63.21;102696.41;5015627;28;20029;-68
2021/07/18 07:31:02;;;;;;;7.60;2.50;;;;;;;22.01;62.34;102687.66;5019360;28;20489;-68
2021/07/18 07:33:29;;;;;;;5.72;2.22;;;;;;;21.91;62.56;102691.75;5022731;28;20028;-67
2021/07/18 07:35:55;;;;;;;5.95;2.33;;;;;;;22.08;61.95;102691.75;5016831;28;20034;-69
2021/07/18 07:38:20;;;;;;;8.20;2.80;;;;;;;22.09;61.47;102692.59;5017904;28;20071;-68
2021/07/18 07:40:45;;;;;;;7.00;2.38;;;;;;;22.17;60.54;102700.22;5020923;28;20021;-68
2021/07/18 07:43:12;;;;;;;8.65;2.30;;;;;;;22.18;60.69;102696.63;5019419;28;20029;-68
2021/07/18 07:45:37;;;;;;;6.28;2.42;;;;;;;22.24;60.87;102696.28;5021709;28;20035;-68
2021/07/18 07:48:03;;;;;;;6.45;2.10;;;;;;;22.44;61.19;102691.69;5023411;28;20468;-68
2021/07/18 07:50:28;;;;;;;4.43;2.00;;;;;;;22.56;59.03;102688.34;5020157;28;20033;-69
2021/07/18 07:52:53;;;;;;;5.65;2.30;;;;;;;22.64;57.82;102696.81;5022166;28;20467;-69
2021/07/18 07:55:19;;;;;;;5.70;1.98;;;;;;;22.64;58.10;102694.16;5020893;28;20116;-69
2021/07/18 07:57:44;;;;;;;6.03;2.10;;;;;;;22.81;57.88;102698.56;5017148;28;20067;-69
2021/07/18 08:00:12;;;;;;;4.35;2.10;;;;;;;22.84;57.09;102695.72;5020038;28;20052;-70
2021/07/18 08:02:37;;;;;;;4.75;2.17;;;;;;;22.82;57.46;102697.63;5005181;28;20387;-68
2021/07/18 08:05:04;;;;;;;9.52;2.30;;;;;;;23.07;56.70;102690.91;5016194;28;20033;-69
2021/07/18 08:07:29;;;;;;;7.50;2.15;;;;;;;23.32;57.01;102692.16;5007069;28;20361;-71
2021/07/18 08:09:55;;;;;;;9.48;2.42;;;;;;;23.59;56.05;102703.13;5025465;28;20274;-68
2021/07/18 08:12:20;;;;;;;8.35;2.30;;;;;;;23.73;55.06;102691.56;5008680;28;20049;-71
2021/07/18 08:14:45;;;;;;;4.88;2.10;;;;;;;23.79;54.49;102691.22;5024420;28;20026;-67
2021/07/18 08:17:14;;;;;;;4.82;1.90;;;;;;;23.77;54.24;102697.63;5025950;28;20029;-69
2021/07/18 08:19:40;;;;;;;8.82;2.15;;;;;;;23.96;53.62;102705.44;5026966;28;20061;-68
2021/07/18 08:22:05;;;;;;;8.50;2.25;;;;;;;23.91;53.58;102694.94;5027194;28;20044;-68
2021/07/18 08:24:31;;;;;;;10.65;2.10;;;;;;;24.14;53.56;102690.91;5026599;28;20021;-71
2021/07/18 08:26:57;;;;;;;4.13;1.92;;;;;;;24.71;53.34;102694.56;5026367;28;20029;-69
2021/07/18 08:29:22;;;;;;;3.90;1.80;;;;;;;24.97;51.93;102692.88;5026197;28;20352;-67
2021/07/18 08:31:48;;;;;;;7.38;2.50;;;;;;;25.04;50.71;102687.09;5014273;28;20073;-68
2021/07/18 08:34:14;;;;;;;4.80;2.17;;;;;;;25.23;50.82;102692.97;5007766;28;20479;-68
2021/07/18 08:36:39;;;;;;;6.82;2.40;;;;;;;25.64;48.40;102691.19;5021297;28;20048;-67
2021/07/18 08:39:04;;;;;;;5.25;2.20;;;;;;;26.33;47.97;102682.84;5006703;28;20390;-67
2021/07/18 08:41:30;;;;;;;5.70;2.38;;;;;;;26.96;45.77;102688.22;4992806;28;20371;-68
2021/07/18 08:43:55;;;;;;;7.28;2.28;;;;;;;27.79;44.33;102683.78;5029348;28;20013;-69
2021/07/18 08:46:21;;;;;;;5.20;2.33;;;;;;;28.44;42.89;102686.81;5041331;28;20032;-69
2021/07/18 08:48:47;;;;;;;5.57;2.30;;;;;;;28.91;42.02;102686.63;5024550;28;20462;-70
2021/07/18 08:51:14;;;;;;;11.60;2.15;;;;;;;29.03;41.37;102684.78;5045112;28;20537;-70
2021/07/18 08:53:40;;;;;;;7.22;2.33;;;;;;;29.33;40.86;102690.47;5045721;28;20021;-72
2021/07/18 08:56:05;;;;;;;5.30;2.20;;;;;;;29.69;39.46;102674.78;5014922;28;20029;-72
2021/07/18 08:58:30;;;;;;;7.63;2.47;;;;;;;29.42;39.29;102682.44;5041789;28;20049;-72
2021/07/18 09:00:56;;;;;;;7.65;2.40;;;;;;;29.49;39.69;102673.81;5020045;28;20033;-72
2021/07/18 09:03:21;;;;;;;5.68;2.13;;;;;;;29.56;38.94;102675.84;5011778;28;20116;-70
2021/07/18 09:05:47;;;;;;;7.22;2.13;;;;;;;29.04;40.19;102675.69;5026403;28;20067;-71
2021/07/18 09:08:20;;;;;;;8.43;2.30;;;;;;;29.50;39.10;102675.50;5024670;28;20498;-71
2021/07/18 09:10:49;;;;;;;8.70;2.30;;;;;;;29.54;38.99;102675.13;5026248;28;20331;-72
2021/07/18 09:13:18;;;;;;;5.00;2.10;;;;;;;28.89;40.09;102666.13;5027006;28;20022;-70
2021/07/18 09:15:49;;;;;;;7.90;2.17;;;;;;;29.18;39.60;102674.53;5026761;28;20033;-73
2021/07/18 09:18:20;;;;;;;5.20;2.20;;;;;;;29.36;40.41;102672.16;5009799;28;20022;-70
2021/07/18 09:20:47;;;;;;;9.15;2.17;;;;;;;29.50;39.82;102681.78;5027401;28;20017;-71
2021/07/18 09:23:18;;;;;;;8.95;2.22;;;;;;;30.25;39.42;102671.69;5032984;28;20029;-71
2021/07/18 09:25:44;;;;;;;9.38;2.33;;;;;;;30.82;37.15;102667.59;5017581;28;20032;-71
2021/07/18 09:28:14;;;;;;;5.65;2.33;;;;;;;31.03;36.48;102672.88;5027992;28;20029;-71
2021/07/18 09:30:39;;;;;;;7.22;2.20;;;;;;;30.39;40.10;102675.88;5009630;28;20057;-71
2021/07/18 09:33:05;;;;;;;12.07;2.42;;;;;;;30.71;37.06;102660.44;5022344;28;20064;-73
2021/07/18 09:35:30;;;;;;;5.43;2.33;;;;;;;31.54;35.89;102660.91;5009244;28;20025;-70
2021/07/18 09:37:56;;;;;;;6.28;2.15;;;;;;;31.13;36.26;102664.81;5009128;28;20064;-70
2021/07/18 09:40:25;;;;;;;6.95;2.40;;;;;;;31.59;34.71;102668.59;4995839;28;20021;-72
2021/07/18 09:42:52;;;;;;;5.13;2.17;;;;;;;31.42;35.71;102666.63;5030048;28;20478;-72
2021/07/18 09:45:25;;;;;;;6.13;2.30;;;;;;;30.25;37.20;102662.72;4983390;28;20029;-71
2021/07/18 09:48:00;;;;;;;9.82;2.70;;;;;;;29.70;37.67;102663.00;5030142;28;20051;-70
2021/07/18 09:50:33;;;;;;;5.97;2.30;;;;;;;29.89;37.66;102657.69;5023291;28;20026;-71
2021/07/18 09:53:24;;;;;;;6.18;2.40;;;;;;;29.58;38.72;102664.91;5023185;28;20074;-70
2021/07/18 09:55:57;;;;;;;6.43;2.20;;;;;;;29.17;39.65;102664.69;5012545;28;20041;-70
2021/07/18 09:58:22;;;;;;;6.35;2.03;;;;;;;30.32;37.87;102663.03;5029345;28;20476;-72
2021/07/18 10:00:48;;;;;;;6.30;1.90;;;;;;;30.90;36.67;102654.22;5011136;28;20025;-70
2021/07/18 10:03:18;;;;;;;3.95;1.98;;;;;;;30.35;36.51;102660.91;5013793;28;20110;-70
2021/07/18 10:05:43;;;;;;;8.63;2.28;;;;;;;30.82;36.49;102652.19;5029159;28;20033;-70
2021/07/18 10:08:10;;;;;;;3.15;1.92;;;;;;;30.61;36.11;102655.00;5027362;28;20021;-73
2021/07/18 10:10:36;;;;;;;4.20;2.03;;;;;;;31.11;35.00;102655.94;5010154;28;20040;-73
2021/07/18 10:13:03;;;;;;;6.88;2.25;;;;;;;31.09;35.58;102658.81;5028834;28;20100;-73
2021/07/18 10:15:29;;;;;;;4.35;2.00;;;;;;;30.50;35.31;102653.28;5028449;28;20029;-70
2021/07/18 10:17:54;;;;;;;5.25;2.25;;;;;;;30.80;35.54;102656.03;4994263;28;20159;-73
2021/07/18 10:20:19;;;;;;;6.50;2.08;;;;;;;30.75;36.16;102656.47;5028768;28;20026;-70
2021/07/18 10:22:46;;;;;;;5.93;2.03;;;;;;;31.23;36.07;102646.66;5025759;28;20022;-70
2021/07/18 10:25:17;;;;;;;7.60;2.13;;;;;;;31.66;35.20;102655.34;5010752;28;20033;-70
2021/07/18 10:27:42;;;;;;;4.53;2.08;;;;;;;30.69;34.64;102649.75;5022618;28;20483;-69
2021/07/18 10:30:08;;;;;;;4.40;1.95;;;;;;;30.58;35.33;102647.19;4997437;28;20033;-70
2021/07/18 10:32:34;;;;;;;5.38;2.10;;;;;;;30.64;35.62;102645.75;5027216;28;20091;-72
2021/07/18 10:35:00;;;;;;;4.63;2.05;;;;;;;31.69;34.03;102645.06;4997915;28;20050;-71
2021/07/18 10:37:40;;;;;;;6.07;2.00;;;;;;;31.84;33.48;102642.72;5019301;28;20026;-69
2021/07/18 10:40:19;;;;;;;5.40;2.20;;;;;;;32.08;33.04;102638.63;5020019;28;20045;-70
2021/07/18 10:42:45;;;;;;;4.00;1.90;;;;;;;31.76;33.84;102647.19;5018755;28;20041;-72
2021/07/18 10:45:23;;;;;;;5.25;2.00;;;;;;;32.16;33.74;102633.31;5020252;28;20022;-73
2021/07/18 10:47:57;;;;;;;3.78;1.65;;;;;;;32.24;32.71;102629.00;5020601;28;20025;-72
2021/07/18 10:50:41;;;;;;;5.20;1.85;;;;;;;31.95;33.16;102630.81;5022651;28;20409;-70
2021/07/18 10:53:28;;;;;;;5.35;2.30;;;;;;;31.60;34.40;102635.06;5013816;28;20032;-70
2021/07/18 10:55:55;;;;;;;6.28;2.05;;;;;;;32.01;34.02;102630.22;5019294;28;20108;-70
2021/07/18 10:58:39;;;;;;;5.35;2.20;;;;;;;32.26;33.64;102632.44;5016799;28;20021;-70
2021/07/18 11:01:27;;;;;;;5.22;1.90;;;;;;;32.48;34.00;102632.00;4994271;28;20060;-73
2021/07/18 11:03:52;;;;;;;7.32;1.90;;;;;;;32.93;33.22;102627.59;5012538;28;20033;-70
2021/07/18 11:06:32;;;;;;;7.72;2.03;;;;;;;33.39;31.15;102632.91;5028400;28;20605;-71
2021/07/18 11:09:19;;;;;;;7.30;2.28;;;;;;;33.35;30.59;102636.09;5028451;28;20079;-69
2021/07/18 11:11:44;;;;;;;7.40;2.00;;;;;;;33.79;29.99;102625.16;5028171;28;20375;-70
2021/07/18 11:14:35;;;;;;;3.30;1.80;;;;;;;32.72;30.91;102621.56;5028917;28;20100;-69
2021/07/18 11:17:07;;;;;;;4.28;1.83;;;;;;;33.27;30.44;102623.28;5008163;28;20025;-70
2021/07/18 11:19:37;;;;;;;4.10;1.70;;;;;;;33.50;30.25;102623.63;5024564;28;20033;-72